createdAt,value
2022-07-29T00:00:26.503Z,83.41
2022-07-29T00:05:40.644Z,83.00
2022-07-29T00:10:43.350Z,83.48
2022-07-29T00:15:45.793Z,84.12
2022-07-29T00:20:48.186Z,84.45
2022-07-29T00:25:50.717Z,84.49
2022-07-29T00:30:53.227Z,84.33
2022-07-29T00:35:55.832Z,84.24
2022-07-29T00:40:59.728Z,84.45
2022-07-29T00:46:02.695Z,84.70
2022-07-29T00:51:06.690Z,85.03
2022-07-29T00:56:09.107Z,84.91
2022-07-29T01:01:11.554Z,85.18
2022-07-29T01:06:15.580Z,85.03
2022-07-29T01:11:19.172Z,85.46
2022-07-29T01:16:38.173Z,85.64
2022-07-29T01:21:58.450Z,85.43
2022-07-29T01:27:32.702Z,84.51
2022-07-29T01:32:38.117Z,84.29
2022-07-29T01:37:46.268Z,84.93
2022-07-29T01:42:55.616Z,85.19
2022-07-29T01:48:13.888Z,85.38
2022-07-29T01:53:26.739Z,85.60
2022-07-29T01:58:32.292Z,85.49
2022-07-29T02:03:37.242Z,85.53
2022-07-29T02:08:41.564Z,85.98
2022-07-29T02:13:46.373Z,85.77
2022-07-29T02:18:51.489Z,85.57
2022-07-29T02:23:55.408Z,85.79
2022-07-29T02:29:01.234Z,85.74
2022-07-29T02:34:05.906Z,85.69
2022-07-29T02:39:10.798Z,85.50
2022-07-29T02:44:21.828Z,84.95
2022-07-29T02:49:30.011Z,85.31
2022-07-29T02:54:45.298Z,85.28
2022-07-29T02:59:52.666Z,85.06
2022-07-29T03:04:56.884Z,85.66
2022-07-29T03:10:02.010Z,85.71
2022-07-29T03:15:05.298Z,85.75
2022-07-29T03:20:09.290Z,85.61
2022-07-29T03:25:13.537Z,85.48
2022-07-29T03:30:21.753Z,85.71
2022-07-29T03:35:25.648Z,85.59
2022-07-29T03:40:50.590Z,85.87
2022-07-29T03:45:55.970Z,85.59
2022-07-29T03:50:58.443Z,85.48
2022-07-29T03:56:02.994Z,85.05
2022-07-29T04:01:06.166Z,84.29
2022-07-29T04:06:08.662Z,84.08
2022-07-29T04:11:11.196Z,84.50
2022-07-29T04:16:13.627Z,83.71
2022-07-29T04:21:16.236Z,83.89
2022-07-29T04:26:19.605Z,83.62
2022-07-29T04:31:25.729Z,83.44
2022-07-29T04:36:29.899Z,83.21
2022-07-29T04:41:33.690Z,82.86
2022-07-29T04:46:37.195Z,82.84
2022-07-29T04:51:40.053Z,82.46
2022-07-29T04:56:42.780Z,82.37
2022-07-29T05:01:45.206Z,82.41
2022-07-29T05:06:47.775Z,82.06
2022-07-29T05:11:50.181Z,81.53
2022-07-29T05:16:53.773Z,80.47
2022-07-29T05:21:56.178Z,79.91
2022-07-29T05:26:58.621Z,79.84
2022-07-29T05:32:01.041Z,79.25
2022-07-29T05:37:03.435Z,78.77
2022-07-29T05:42:10.673Z,78.52
2022-07-29T05:47:13.216Z,77.87
2022-07-29T05:52:16.071Z,77.16
2022-07-29T05:57:21.117Z,75.69
2022-07-29T06:02:23.556Z,74.89
2022-07-29T06:07:25.998Z,74.73
2022-07-29T06:12:28.492Z,74.02
2022-07-29T06:17:30.938Z,72.39
2022-07-29T06:22:33.336Z,71.74
2022-07-29T06:27:35.765Z,70.07
2022-07-29T06:32:42.923Z,66.10
2022-07-29T06:37:45.701Z,64.49
2022-07-29T06:42:51.235Z,64.31
2022-07-29T06:47:53.685Z,62.11
2022-07-29T06:52:56.135Z,62.24
2022-07-29T06:57:58.558Z,61.01
2022-07-29T07:03:00.926Z,60.80
2022-07-29T07:08:04.183Z,59.86
2022-07-29T07:13:06.866Z,58.05
2022-07-29T07:18:09.899Z,57.24
2022-07-29T07:23:12.382Z,57.78
2022-07-29T07:28:14.968Z,56.91
2022-07-29T07:33:17.507Z,55.75
2022-07-29T07:38:20.099Z,54.09
2022-07-29T07:43:23.437Z,54.01
2022-07-29T07:48:25.853Z,50.71
2022-07-29T07:53:30.616Z,51.13
2022-07-29T07:58:33.553Z,50.57
2022-07-29T08:03:36.252Z,49.55
2022-07-29T08:08:38.637Z,48.32
2022-07-29T08:13:41.072Z,48.40
2022-07-29T08:18:44.724Z,48.40
2022-07-29T08:23:57.646Z,47.68
2022-07-29T08:29:02.280Z,47.25
2022-07-29T08:34:05.610Z,47.81
2022-07-29T08:39:08.053Z,45.54
2022-07-29T08:44:10.637Z,45.06
2022-07-29T08:49:13.161Z,44.93
2022-07-29T08:54:19.272Z,44.75
2022-07-29T08:59:25.512Z,44.49
2022-07-29T09:04:34.149Z,43.73
2022-07-29T09:09:36.536Z,43.69
2022-07-29T09:14:39.951Z,43.52
2022-07-29T09:19:44.775Z,43.13
2022-07-29T09:24:48.475Z,42.21
2022-07-29T09:30:02.479Z,41.58
2022-07-29T09:35:23.242Z,41.66
2022-07-29T09:40:28.516Z,41.31
2022-07-29T09:45:32.190Z,40.51
2022-07-29T09:50:42.126Z,39.44
2022-07-29T09:55:52.545Z,38.97
2022-07-29T10:00:56.909Z,36.85
2022-07-29T10:06:15.172Z,37.52
2022-07-29T10:11:18.533Z,38.66
2022-07-29T10:16:20.996Z,37.89
2022-07-29T10:21:35.942Z,37.76
2022-07-29T10:26:41.799Z,37.14
2022-07-29T10:32:15.257Z,36.14
2022-07-29T10:37:35.406Z,35.52
2022-07-29T10:42:42.182Z,35.06
2022-07-29T10:47:45.944Z,35.56
2022-07-29T10:52:53.395Z,35.52
2022-07-29T10:58:21.786Z,33.93
2022-07-29T11:03:53.719Z,34.15
2022-07-29T11:09:20.192Z,34.18
2022-07-29T11:14:55.614Z,33.39
2022-07-29T11:20:30.863Z,33.35
2022-07-29T11:25:50.156Z,32.10
2022-07-29T11:30:55.963Z,31.75
2022-07-29T11:36:16.934Z,31.90
2022-07-29T11:41:26.076Z,31.96
2022-07-29T11:46:49.958Z,32.14
2022-07-29T11:51:54.299Z,31.98
2022-07-29T11:56:58.717Z,30.89
2022-07-29T12:02:33.318Z,31.13
2022-07-29T12:07:34.605Z,30.48
2022-07-29T12:12:39.552Z,31.20
2022-07-29T12:17:42.734Z,31.18
2022-07-29T12:22:45.306Z,32.15
2022-07-29T12:27:58.996Z,32.30
2022-07-29T12:33:02.680Z,32.08
2022-07-29T12:38:05.453Z,31.02
2022-07-29T12:43:13.997Z,31.39
2022-07-29T12:48:17.514Z,30.73
2022-07-29T12:53:20.128Z,31.07
2022-07-29T12:58:39.725Z,30.35
2022-07-29T13:04:00.716Z,30.01
2022-07-29T13:09:20.624Z,30.07
2022-07-29T13:14:48.922Z,30.45
2022-07-29T13:20:15.590Z,30.59
2022-07-29T13:25:34.206Z,31.44
2022-07-29T13:30:36.638Z,30.84
2022-07-29T13:35:48.372Z,30.26
2022-07-29T13:40:50.760Z,29.30
2022-07-29T13:45:53.288Z,29.36
2022-07-29T13:50:55.826Z,28.89
2022-07-29T13:55:58.298Z,28.46
2022-07-29T14:01:01.539Z,27.64
2022-07-29T14:06:03.871Z,28.11
2022-07-29T14:11:06.341Z,28.00
2022-07-29T14:16:09.008Z,28.91
2022-07-29T14:21:11.426Z,29.56
2022-07-29T14:26:15.858Z,30.01
2022-07-29T14:31:22.887Z,30.37
2022-07-29T14:36:25.439Z,29.31
2022-07-29T14:41:29.156Z,27.63
2022-07-29T14:46:31.803Z,26.07
2022-07-29T14:51:34.451Z,24.65
2022-07-29T14:56:37.715Z,22.61
2022-07-29T15:01:48.782Z,22.18
2022-07-29T15:06:52.690Z,22.37
2022-07-29T15:11:55.387Z,21.83
2022-07-29T15:16:58.179Z,19.99
2022-07-29T15:22:01.632Z,20.10
2022-07-29T15:27:04.324Z,20.66
2022-07-29T15:32:07.010Z,21.69
2022-07-29T15:37:11.640Z,22.89
2022-07-29T15:42:14.072Z,22.97
2022-07-29T15:47:20.246Z,21.74
2022-07-29T15:52:25.630Z,19.88
2022-07-29T15:57:28.710Z,18.84
2022-07-29T16:02:31.587Z,18.41
2022-07-29T16:07:34.155Z,18.62
2022-07-29T16:12:37.162Z,18.96
2022-07-29T16:17:39.568Z,18.77
2022-07-29T16:22:43.146Z,18.09
2022-07-29T16:27:45.511Z,17.50
2022-07-29T16:32:47.945Z,17.97
2022-07-29T16:37:50.278Z,20.77
2022-07-29T16:42:52.687Z,23.41
2022-07-29T16:48:00.121Z,25.79
2022-07-29T16:53:03.407Z,27.86
2022-07-29T16:58:05.891Z,29.69
2022-07-29T17:03:08.331Z,31.11
2022-07-29T17:08:10.741Z,32.03
2022-07-29T17:13:13.189Z,32.91
2022-07-29T17:18:15.609Z,33.16
2022-07-29T17:23:18.039Z,33.68
2022-07-29T17:28:20.433Z,34.22
2022-07-29T17:33:22.862Z,35.08
2022-07-29T17:38:25.377Z,35.65
2022-07-29T17:43:27.994Z,36.32
2022-07-29T17:48:30.563Z,36.97
2022-07-29T17:53:33.150Z,37.58
2022-07-29T17:58:36.222Z,38.14
2022-07-29T18:03:38.653Z,38.66
2022-07-29T18:08:41.378Z,39.05
2022-07-29T18:13:43.814Z,39.73
2022-07-29T18:18:46.427Z,40.23
2022-07-29T18:23:50.594Z,40.90
2022-07-29T18:28:53.030Z,41.55
2022-07-29T18:33:59.874Z,42.31
2022-07-29T18:39:02.703Z,43.25
2022-07-29T18:44:05.233Z,44.02
2022-07-29T18:49:08.104Z,44.52
2022-07-29T18:54:10.592Z,45.60
2022-07-29T18:59:16.836Z,46.49
2022-07-29T19:04:19.275Z,46.94
2022-07-29T19:09:21.855Z,47.51
2022-07-29T19:14:24.277Z,47.95
2022-07-29T19:19:26.930Z,48.60
2022-07-29T19:24:29.364Z,49.81
2022-07-29T19:29:32.764Z,50.45
2022-07-29T19:34:35.577Z,51.14
2022-07-29T19:39:37.977Z,52.12
2022-07-29T19:44:40.421Z,53.12
2022-07-29T19:49:42.860Z,54.05
2022-07-29T19:54:45.324Z,54.66
2022-07-29T19:59:48.201Z,55.21
2022-07-29T20:04:52.089Z,56.15
2022-07-29T20:09:55.073Z,56.63
2022-07-29T20:14:58.071Z,57.20
2022-07-29T20:20:01.098Z,57.42
2022-07-29T20:25:05.496Z,57.66
2022-07-29T20:30:08.954Z,58.51
2022-07-29T20:35:13.793Z,59.02
2022-07-29T20:40:16.789Z,59.32
2022-07-29T20:45:20.027Z,59.94
2022-07-29T20:50:24.042Z,60.54
2022-07-29T20:55:26.923Z,60.92
2022-07-29T21:00:29.707Z,61.04
2022-07-29T21:05:32.689Z,61.49
2022-07-29T21:10:35.108Z,61.74
2022-07-29T21:15:38.064Z,62.02
2022-07-29T21:20:40.665Z,62.27
2022-07-29T21:25:43.293Z,62.49
2022-07-29T21:30:45.816Z,62.88
2022-07-29T21:36:26.615Z,63.08
2022-07-29T21:42:15.188Z,63.33
2022-07-29T21:47:17.623Z,63.88
2022-07-29T21:52:20.341Z,64.14
2022-07-29T21:57:23.519Z,64.70
2022-07-29T22:02:26.019Z,64.75
2022-07-29T22:07:55.442Z,65.23
2022-07-29T22:12:52.480Z,65.90
2022-07-29T22:17:55.574Z,66.15
2022-07-29T22:22:58.183Z,66.24
2022-07-29T22:28:00.598Z,66.34
2022-07-29T22:33:03.076Z,66.87
2022-07-29T22:38:05.443Z,67.23
2022-07-29T22:43:08.090Z,67.38
2022-07-29T22:48:10.588Z,67.93
2022-07-29T22:53:13.863Z,67.91
2022-07-29T22:58:16.226Z,68.20
2022-07-29T23:03:18.769Z,68.76
2022-07-29T23:08:21.257Z,69.12
2022-07-29T23:13:23.710Z,69.02
2022-07-29T23:18:26.143Z,69.58
2022-07-29T23:23:32.345Z,69.42
2022-07-29T23:28:35.084Z,69.86
2022-07-29T23:33:37.481Z,70.38
2022-07-29T23:38:40.892Z,70.33
2022-07-29T23:43:43.494Z,70.43
2022-07-29T23:48:46.268Z,70.63
2022-07-29T23:53:53.049Z,70.56
2022-07-29T23:58:56.515Z,71.09
